sensor_id;sensor_type;location;lat;lon;timestamp;P1;durP1;ratioP1;P2;durP2;ratioP2
43861;SDS011;29510;52.140;5.034;2023-04-25T00:04:30;3.78;;;1.20;;
43861;SDS011;29510;52.140;5.034;2023-04-25T00:14:34;4.38;;;1.02;;
43861;SDS011;29510;52.140;5.034;2023-04-25T00:24:36;5.50;;;1.23;;
43861;SDS011;29510;52.140;5.034;2023-04-25T00:34:37;4.50;;;1.15;;
43861;SDS011;29510;52.140;5.034;2023-04-25T00:44:38;2.80;;;1.08;;
43861;SDS011;29510;52.140;5.034;2023-04-25T00:54:39;6.88;;;2.00;;
43861;SDS011;29510;52.140;5.034;2023-04-25T01:04:42;9.25;;;1.33;;
43861;SDS011;29510;52.140;5.034;2023-04-25T01:14:43;5.38;;;1.92;;
43861;SDS011;29510;52.140;5.034;2023-04-25T01:24:45;6.38;;;2.53;;
43861;SDS011;29510;52.140;5.034;2023-04-25T01:34:46;3.90;;;1.17;;
43861;SDS011;29510;52.140;5.034;2023-04-25T01:44:47;4.10;;;1.08;;
43861;SDS011;29510;52.140;5.034;2023-04-25T01:54:48;2.65;;;0.88;;
43861;SDS011;29510;52.140;5.034;2023-04-25T02:04:51;3.05;;;1.20;;
43861;SDS011;29510;52.140;5.034;2023-04-25T02:14:52;2.78;;;1.58;;
43861;SDS011;29510;52.140;5.034;2023-04-25T02:24:53;4.72;;;2.08;;
43861;SDS011;29510;52.140;5.034;2023-04-25T02:34:55;3.60;;;1.98;;
43861;SDS011;29510;52.140;5.034;2023-04-25T02:44:59;5.00;;;1.58;;
43861;SDS011;29510;52.140;5.034;2023-04-25T02:55:00;7.22;;;2.00;;
43861;SDS011;29510;52.140;5.034;2023-04-25T03:05:01;6.05;;;2.30;;
43861;SDS011;29510;52.140;5.034;2023-04-25T03:15:04;3.70;;;1.20;;
43861;SDS011;29510;52.140;5.034;2023-04-25T03:25:05;3.72;;;1.20;;
43861;SDS011;29510;52.140;5.034;2023-04-25T03:35:07;2.08;;;0.80;;
43861;SDS011;29510;52.140;5.034;2023-04-25T03:45:09;3.72;;;0.82;;
43861;SDS011;29510;52.140;5.034;2023-04-25T03:55:11;4.80;;;1.55;;
43861;SDS011;29510;52.140;5.034;2023-04-25T04:05:12;2.17;;;0.75;;
43861;SDS011;29510;52.140;5.034;2023-04-25T04:15:13;5.10;;;1.63;;
43861;SDS011;29510;52.140;5.034;2023-04-25T04:25:14;3.67;;;0.93;;
43861;SDS011;29510;52.140;5.034;2023-04-25T04:35:17;3.97;;;1.35;;
43861;SDS011;29510;52.140;5.034;2023-04-25T04:45:18;8.25;;;0.70;;
43861;SDS011;29510;52.140;5.034;2023-04-25T04:55:19;3.75;;;1.00;;
43861;SDS011;29510;52.140;5.034;2023-04-25T05:05:20;4.03;;;1.48;;
43861;SDS011;29510;52.140;5.034;2023-04-25T05:15:22;2.75;;;1.10;;
43861;SDS011;29510;52.140;5.034;2023-04-25T05:25:23;2.45;;;1.25;;
43861;SDS011;29510;52.140;5.034;2023-04-25T05:35:24;3.80;;;1.67;;
43861;SDS011;29510;52.140;5.034;2023-04-25T05:45:25;1.45;;;0.68;;
43861;SDS011;29510;52.140;5.034;2023-04-25T05:55:26;1.63;;;0.82;;
43861;SDS011;29510;52.140;5.034;2023-04-25T06:05:28;2.10;;;0.60;;
43861;SDS011;29510;52.140;5.034;2023-04-25T06:15:29;2.40;;;1.25;;
43861;SDS011;29510;52.140;5.034;2023-04-25T06:25:32;3.83;;;0.95;;
43861;SDS011;29510;52.140;5.034;2023-04-25T06:35:34;3.40;;;1.02;;
43861;SDS011;29510;52.140;5.034;2023-04-25T06:45:35;6.78;;;1.65;;
43861;SDS011;29510;52.140;5.034;2023-04-25T06:55:36;4.13;;;1.00;;
43861;SDS011;29510;52.140;5.034;2023-04-25T07:05:37;9.20;;;1.33;;
43861;SDS011;29510;52.140;5.034;2023-04-25T07:15:38;1.50;;;0.70;;
43861;SDS011;29510;52.140;5.034;2023-04-25T07:25:39;1.80;;;0.43;;
43861;SDS011;29510;52.140;5.034;2023-04-25T07:35:40;3.22;;;0.65;;
43861;SDS011;29510;52.140;5.034;2023-04-25T07:45:42;1.38;;;0.40;;
43861;SDS011;29510;52.140;5.034;2023-04-25T07:55:43;1.10;;;0.30;;
43861;SDS011;29510;52.140;5.034;2023-04-25T08:05:45;1.77;;;0.35;;
43861;SDS011;29510;52.140;5.034;2023-04-25T08:15:46;2.45;;;0.70;;
43861;SDS011;29510;52.140;5.034;2023-04-25T08:25:47;6.63;;;0.77;;
43861;SDS011;29510;52.140;5.034;2023-04-25T08:35:48;1.23;;;0.50;;
43861;SDS011;29510;52.140;5.034;2023-04-25T08:45:49;1.90;;;0.68;;
43861;SDS011;29510;52.140;5.034;2023-04-25T08:55:55;1.95;;;0.98;;
43861;SDS011;29510;52.140;5.034;2023-04-25T09:05:58;5.63;;;1.00;;
43861;SDS011;29510;52.140;5.034;2023-04-25T09:15:59;1.33;;;0.30;;
43861;SDS011;29510;52.140;5.034;2023-04-25T09:26:00;1.85;;;0.40;;
43861;SDS011;29510;52.140;5.034;2023-04-25T09:36:03;4.03;;;0.95;;
43861;SDS011;29510;52.140;5.034;2023-04-25T09:46:09;13.50;;;1.50;;
43861;SDS011;29510;52.140;5.034;2023-04-25T09:56:12;2.45;;;0.93;;
43861;SDS011;29510;52.140;5.034;2023-04-25T10:06:14;1.50;;;0.30;;
43861;SDS011;29510;52.140;5.034;2023-04-25T10:16:20;0.93;;;0.40;;
43861;SDS011;29510;52.140;5.034;2023-04-25T10:26:22;1.65;;;0.68;;
43861;SDS011;29510;52.140;5.034;2023-04-25T10:36:24;1.33;;;0.40;;
43861;SDS011;29510;52.140;5.034;2023-04-25T10:46:29;3.20;;;0.70;;
43861;SDS011;29510;52.140;5.034;2023-04-25T11:17:08;2.03;;;0.40;;
43861;SDS011;29510;52.140;5.034;2023-04-25T11:27:10;2.58;;;0.82;;
43861;SDS011;29510;52.140;5.034;2023-04-25T11:37:13;1.48;;;0.73;;
43861;SDS011;29510;52.140;5.034;2023-04-25T11:47:15;4.00;;;1.13;;
43861;SDS011;29510;52.140;5.034;2023-04-25T11:57:18;1.15;;;0.40;;
43861;SDS011;29510;52.140;5.034;2023-04-25T12:07:20;2.25;;;0.30;;
43861;SDS011;29510;52.140;5.034;2023-04-25T12:17:23;1.35;;;0.30;;
43861;SDS011;29510;52.140;5.034;2023-04-25T12:27:25;1.23;;;0.50;;
43861;SDS011;29510;52.140;5.034;2023-04-25T12:37:28;3.83;;;0.85;;
43861;SDS011;29510;52.140;5.034;2023-04-25T12:47:29;1.50;;;0.38;;
43861;SDS011;29510;52.140;5.034;2023-04-25T12:57:30;22.95;;;0.60;;
43861;SDS011;29510;52.140;5.034;2023-04-25T13:07:31;1.42;;;0.50;;
43861;SDS011;29510;52.140;5.034;2023-04-25T13:17:32;2.35;;;0.95;;
43861;SDS011;29510;52.140;5.034;2023-04-25T13:27:33;1.30;;;0.40;;
43861;SDS011;29510;52.140;5.034;2023-04-25T13:37:36;1.27;;;0.68;;
43861;SDS011;29510;52.140;5.034;2023-04-25T13:47:38;2.05;;;0.52;;
43861;SDS011;29510;52.140;5.034;2023-04-25T13:57:39;6.30;;;1.13;;
43861;SDS011;29510;52.140;5.034;2023-04-25T14:07:40;4.13;;;1.08;;
43861;SDS011;29510;52.140;5.034;2023-04-25T14:17:41;9.20;;;1.13;;
43861;SDS011;29510;52.140;5.034;2023-04-25T14:27:42;2.30;;;0.88;;
43861;SDS011;29510;52.140;5.034;2023-04-25T14:37:44;1.67;;;0.50;;
43861;SDS011;29510;52.140;5.034;2023-04-25T14:47:45;0.80;;;0.30;;
43861;SDS011;29510;52.140;5.034;2023-04-25T14:57:46;2.75;;;0.40;;
43861;SDS011;29510;52.140;5.034;2023-04-25T15:07:47;2.17;;;0.70;;
43861;SDS011;29510;52.140;5.034;2023-04-25T15:17:48;5.07;;;1.10;;
43861;SDS011;29510;52.140;5.034;2023-04-25T15:27:50;2.30;;;0.63;;
43861;SDS011;29510;52.140;5.034;2023-04-25T15:37:52;1.77;;;0.60;;
43861;SDS011;29510;52.140;5.034;2023-04-25T15:47:54;0.95;;;0.20;;
43861;SDS011;29510;52.140;5.034;2023-04-25T15:57:56;3.72;;;0.40;;
43861;SDS011;29510;52.140;5.034;2023-04-25T16:07:57;1.42;;;0.93;;
43861;SDS011;29510;52.140;5.034;2023-04-25T16:17:58;3.00;;;0.98;;
43861;SDS011;29510;52.140;5.034;2023-04-25T16:27:59;2.83;;;0.80;;
43861;SDS011;29510;52.140;5.034;2023-04-25T16:38:00;1.70;;;0.80;;
43861;SDS011;29510;52.140;5.034;2023-04-25T16:48:02;1.88;;;0.43;;
43861;SDS011;29510;52.140;5.034;2023-04-25T16:58:03;1.10;;;0.40;;
43861;SDS011;29510;52.140;5.034;2023-04-25T17:08:05;2.60;;;1.08;;
43861;SDS011;29510;52.140;5.034;2023-04-25T17:18:06;2.95;;;0.82;;
43861;SDS011;29510;52.140;5.034;2023-04-25T17:28:07;1.80;;;0.80;;
43861;SDS011;29510;52.140;5.034;2023-04-25T17:38:08;2.13;;;1.13;;
43861;SDS011;29510;52.140;5.034;2023-04-25T17:48:10;1.60;;;0.60;;
43861;SDS011;29510;52.140;5.034;2023-04-25T17:58:11;2.40;;;1.10;;
43861;SDS011;29510;52.140;5.034;2023-04-25T18:08:12;3.70;;;0.90;;
43861;SDS011;29510;52.140;5.034;2023-04-25T18:18:13;4.47;;;0.80;;
43861;SDS011;29510;52.140;5.034;2023-04-25T18:28:19;4.28;;;0.80;;
43861;SDS011;29510;52.140;5.034;2023-04-25T18:38:21;6.68;;;1.38;;
43861;SDS011;29510;52.140;5.034;2023-04-25T18:48:23;1.80;;;0.70;;
43861;SDS011;29510;52.140;5.034;2023-04-25T18:58:24;2.25;;;1.10;;
43861;SDS011;29510;52.140;5.034;2023-04-25T19:08:25;3.05;;;1.40;;
43861;SDS011;29510;52.140;5.034;2023-04-25T19:18:27;2.20;;;0.90;;
43861;SDS011;29510;52.140;5.034;2023-04-25T19:28:28;6.22;;;1.08;;
43861;SDS011;29510;52.140;5.034;2023-04-25T19:38:30;4.05;;;1.17;;
43861;SDS011;29510;52.140;5.034;2023-04-25T19:48:31;3.42;;;1.77;;
43861;SDS011;29510;52.140;5.034;2023-04-25T19:58:32;2.20;;;1.00;;
43861;SDS011;29510;52.140;5.034;2023-04-25T20:08:34;2.00;;;0.95;;
43861;SDS011;29510;52.140;5.034;2023-04-25T20:18:35;2.97;;;0.90;;
43861;SDS011;29510;52.140;5.034;2023-04-25T20:28:37;2.47;;;1.35;;
43861;SDS011;29510;52.140;5.034;2023-04-25T20:38:38;3.42;;;1.77;;
43861;SDS011;29510;52.140;5.034;2023-04-25T20:48:39;4.90;;;2.30;;
43861;SDS011;29510;52.140;5.034;2023-04-25T20:58:40;5.63;;;2.05;;
43861;SDS011;29510;52.140;5.034;2023-04-25T21:08:41;2.60;;;1.60;;
43861;SDS011;29510;52.140;5.034;2023-04-25T21:18:42;4.18;;;1.63;;
43861;SDS011;29510;52.140;5.034;2023-04-25T21:28:43;5.72;;;2.33;;
43861;SDS011;29510;52.140;5.034;2023-04-25T21:38:46;4.68;;;2.20;;
43861;SDS011;29510;52.140;5.034;2023-04-25T21:48:47;5.43;;;2.00;;
43861;SDS011;29510;52.140;5.034;2023-04-25T21:58:48;11.20;;;3.25;;
43861;SDS011;29510;52.140;5.034;2023-04-25T22:08:49;4.70;;;1.98;;
43861;SDS011;29510;52.140;5.034;2023-04-25T22:18:51;7.00;;;1.70;;
43861;SDS011;29510;52.140;5.034;2023-04-25T22:28:53;5.95;;;2.67;;
43861;SDS011;29510;52.140;5.034;2023-04-25T22:38:54;4.13;;;2.17;;
43861;SDS011;29510;52.140;5.034;2023-04-25T22:48:56;4.47;;;2.20;;
43861;SDS011;29510;52.140;5.034;2023-04-25T22:58:57;6.03;;;2.25;;
43861;SDS011;29510;52.140;5.034;2023-04-25T23:08:58;5.30;;;2.65;;
43861;SDS011;29510;52.140;5.034;2023-04-25T23:18:59;4.78;;;1.88;;
43861;SDS011;29510;52.140;5.034;2023-04-25T23:29:01;7.00;;;1.90;;
43861;SDS011;29510;52.140;5.034;2023-04-25T23:39:02;3.97;;;1.42;;
43861;SDS011;29510;52.140;5.034;2023-04-25T23:49:04;7.25;;;2.05;;
43861;SDS011;29510;52.140;5.034;2023-04-25T23:59:09;3.25;;;1.58;;
